sensor_id;sensor_type;location;lat;lon;timestamp;P1;durP1;ratioP1;P2;durP2;ratioP2
29452;SDS011;16424;50.956;5.320;2024-03-07T00:00:56;79.43;;;41.95;;
29452;SDS011;16424;50.956;5.320;2024-03-07T00:03:23;68.13;;;37.97;;
29452;SDS011;16424;50.956;5.320;2024-03-07T00:05:49;68.78;;;39.20;;
29452;SDS011;16424;50.956;5.320;2024-03-07T00:08:15;67.18;;;39.25;;
29452;SDS011;16424;50.956;5.320;2024-03-07T00:10:41;68.47;;;40.40;;
29452;SDS011;16424;50.956;5.320;2024-03-07T00:13:09;68.00;;;39.10;;
29452;SDS011;16424;50.956;5.320;2024-03-07T00:15:35;66.88;;;39.65;;
29452;SDS011;16424;50.956;5.320;2024-03-07T00:18:00;71.50;;;41.72;;
29452;SDS011;16424;50.956;5.320;2024-03-07T00:20:26;67.30;;;37.35;;
29452;SDS011;16424;50.956;5.320;2024-03-07T00:22:52;59.55;;;35.33;;
29452;SDS011;16424;50.956;5.320;2024-03-07T00:25:17;67.97;;;36.03;;
29452;SDS011;16424;50.956;5.320;2024-03-07T00:27:44;62.03;;;35.17;;
29452;SDS011;16424;50.956;5.320;2024-03-07T00:30:10;56.92;;;35.42;;
29452;SDS011;16424;50.956;5.320;2024-03-07T00:32:38;64.82;;;35.65;;
29452;SDS011;16424;50.956;5.320;2024-03-07T00:35:05;67.40;;;38.58;;
29452;SDS011;16424;50.956;5.320;2024-03-07T00:37:33;64.78;;;37.42;;
29452;SDS011;16424;50.956;5.320;2024-03-07T00:39:59;61.00;;;34.45;;
29452;SDS011;16424;50.956;5.320;2024-03-07T00:42:25;63.80;;;36.55;;
29452;SDS011;16424;50.956;5.320;2024-03-07T00:44:52;77.03;;;41.78;;
29452;SDS011;16424;50.956;5.320;2024-03-07T00:47:18;74.18;;;37.83;;
29452;SDS011;16424;50.956;5.320;2024-03-07T00:49:44;77.00;;;39.55;;
29452;SDS011;16424;50.956;5.320;2024-03-07T00:52:13;66.22;;;39.13;;
29452;SDS011;16424;50.956;5.320;2024-03-07T00:54:39;67.93;;;38.28;;
29452;SDS011;16424;50.956;5.320;2024-03-07T00:57:04;78.22;;;40.55;;
29452;SDS011;16424;50.956;5.320;2024-03-07T00:59:30;73.18;;;39.63;;
29452;SDS011;16424;50.956;5.320;2024-03-07T01:01:56;65.10;;;37.28;;
29452;SDS011;16424;50.956;5.320;2024-03-07T01:04:22;61.25;;;34.35;;
29452;SDS011;16424;50.956;5.320;2024-03-07T01:06:47;64.55;;;36.03;;
29452;SDS011;16424;50.956;5.320;2024-03-07T01:09:13;65.50;;;35.38;;
29452;SDS011;16424;50.956;5.320;2024-03-07T01:11:42;65.70;;;36.05;;
29452;SDS011;16424;50.956;5.320;2024-03-07T01:14:10;59.20;;;33.28;;
29452;SDS011;16424;50.956;5.320;2024-03-07T01:16:36;76.53;;;40.15;;
29452;SDS011;16424;50.956;5.320;2024-03-07T01:19:01;72.72;;;40.45;;
29452;SDS011;16424;50.956;5.320;2024-03-07T01:21:31;86.63;;;43.97;;
29452;SDS011;16424;50.956;5.320;2024-03-07T01:23:59;75.85;;;41.13;;
29452;SDS011;16424;50.956;5.320;2024-03-07T01:26:27;77.47;;;43.45;;
29452;SDS011;16424;50.956;5.320;2024-03-07T01:28:54;79.95;;;43.42;;
29452;SDS011;16424;50.956;5.320;2024-03-07T01:31:23;85.40;;;45.70;;
29452;SDS011;16424;50.956;5.320;2024-03-07T01:33:49;80.80;;;43.50;;
29452;SDS011;16424;50.956;5.320;2024-03-07T01:36:15;91.95;;;46.17;;
29452;SDS011;16424;50.956;5.320;2024-03-07T01:38:41;90.05;;;46.17;;
29452;SDS011;16424;50.956;5.320;2024-03-07T01:41:07;93.75;;;43.42;;
29452;SDS011;16424;50.956;5.320;2024-03-07T01:43:33;88.82;;;42.85;;
29452;SDS011;16424;50.956;5.320;2024-03-07T01:45:59;94.38;;;45.15;;
29452;SDS011;16424;50.956;5.320;2024-03-07T01:48:28;92.32;;;44.08;;
29452;SDS011;16424;50.956;5.320;2024-03-07T01:50:56;92.93;;;44.33;;
29452;SDS011;16424;50.956;5.320;2024-03-07T01:53:25;100.90;;;46.95;;
29452;SDS011;16424;50.956;5.320;2024-03-07T01:55:52;93.95;;;46.58;;
29452;SDS011;16424;50.956;5.320;2024-03-07T01:58:21;96.78;;;47.63;;
29452;SDS011;16424;50.956;5.320;2024-03-07T02:00:49;102.60;;;49.70;;
29452;SDS011;16424;50.956;5.320;2024-03-07T02:03:14;101.53;;;48.28;;
29452;SDS011;16424;50.956;5.320;2024-03-07T02:05:41;102.35;;;52.78;;
29452;SDS011;16424;50.956;5.320;2024-03-07T02:08:07;105.50;;;52.85;;
29452;SDS011;16424;50.956;5.320;2024-03-07T02:10:32;102.13;;;50.90;;
29452;SDS011;16424;50.956;5.320;2024-03-07T02:12:58;109.53;;;49.83;;
29452;SDS011;16424;50.956;5.320;2024-03-07T02:15:25;100.68;;;51.38;;
29452;SDS011;16424;50.956;5.320;2024-03-07T02:17:52;103.32;;;51.00;;
29452;SDS011;16424;50.956;5.320;2024-03-07T02:20:17;98.55;;;48.85;;
29452;SDS011;16424;50.956;5.320;2024-03-07T02:22:43;93.93;;;46.22;;
29452;SDS011;16424;50.956;5.320;2024-03-07T02:25:09;84.45;;;42.33;;
29452;SDS011;16424;50.956;5.320;2024-03-07T02:27:35;87.03;;;43.42;;
29452;SDS011;16424;50.956;5.320;2024-03-07T02:30:01;84.90;;;42.13;;
29452;SDS011;16424;50.956;5.320;2024-03-07T02:32:30;91.60;;;41.35;;
29452;SDS011;16424;50.956;5.320;2024-03-07T02:34:56;84.95;;;42.97;;
29452;SDS011;16424;50.956;5.320;2024-03-07T02:37:22;90.05;;;41.17;;
29452;SDS011;16424;50.956;5.320;2024-03-07T02:39:48;88.60;;;40.55;;
29452;SDS011;16424;50.956;5.320;2024-03-07T02:42:13;85.78;;;43.63;;
29452;SDS011;16424;50.956;5.320;2024-03-07T02:44:39;86.75;;;40.50;;
29452;SDS011;16424;50.956;5.320;2024-03-07T02:47:05;87.25;;;38.95;;
29452;SDS011;16424;50.956;5.320;2024-03-07T02:49:31;86.68;;;42.30;;
29452;SDS011;16424;50.956;5.320;2024-03-07T02:51:57;86.05;;;41.03;;
29452;SDS011;16424;50.956;5.320;2024-03-07T02:54:23;82.40;;;39.70;;
29452;SDS011;16424;50.956;5.320;2024-03-07T02:56:49;83.28;;;38.03;;
29452;SDS011;16424;50.956;5.320;2024-03-07T02:59:14;87.85;;;41.25;;
29452;SDS011;16424;50.956;5.320;2024-03-07T03:01:41;94.93;;;43.33;;
29452;SDS011;16424;50.956;5.320;2024-03-07T03:04:07;93.65;;;43.38;;
29452;SDS011;16424;50.956;5.320;2024-03-07T03:06:33;85.68;;;39.95;;
29452;SDS011;16424;50.956;5.320;2024-03-07T03:08:59;94.60;;;39.75;;
29452;SDS011;16424;50.956;5.320;2024-03-07T03:11:25;102.45;;;40.50;;
29452;SDS011;16424;50.956;5.320;2024-03-07T03:13:51;98.57;;;40.40;;
29452;SDS011;16424;50.956;5.320;2024-03-07T03:16:17;104.30;;;40.38;;
29452;SDS011;16424;50.956;5.320;2024-03-07T03:18:42;97.60;;;40.40;;
29452;SDS011;16424;50.956;5.320;2024-03-07T03:21:08;98.45;;;41.05;;
29452;SDS011;16424;50.956;5.320;2024-03-07T03:23:34;103.88;;;41.83;;
29452;SDS011;16424;50.956;5.320;2024-03-07T03:26:00;113.78;;;44.35;;
29452;SDS011;16424;50.956;5.320;2024-03-07T03:28:26;102.38;;;44.13;;
29452;SDS011;16424;50.956;5.320;2024-03-07T03:30:52;103.35;;;42.25;;
29452;SDS011;16424;50.956;5.320;2024-03-07T03:33:18;107.10;;;42.97;;
29452;SDS011;16424;50.956;5.320;2024-03-07T03:35:45;112.32;;;44.08;;
29452;SDS011;16424;50.956;5.320;2024-03-07T03:38:12;99.63;;;42.55;;
29452;SDS011;16424;50.956;5.320;2024-03-07T03:40:37;110.50;;;44.75;;
29452;SDS011;16424;50.956;5.320;2024-03-07T03:43:03;112.38;;;45.80;;
29452;SDS011;16424;50.956;5.320;2024-03-07T03:45:29;115.75;;;46.53;;
29452;SDS011;16424;50.956;5.320;2024-03-07T03:47:57;115.30;;;44.10;;
29452;SDS011;16424;50.956;5.320;2024-03-07T03:50:22;126.20;;;46.03;;
29452;SDS011;16424;50.956;5.320;2024-03-07T03:52:48;118.20;;;44.85;;
29452;SDS011;16424;50.956;5.320;2024-03-07T03:55:14;117.35;;;44.20;;
29452;SDS011;16424;50.956;5.320;2024-03-07T03:57:40;111.38;;;44.55;;
29452;SDS011;16424;50.956;5.320;2024-03-07T04:00:08;125.18;;;45.30;;
29452;SDS011;16424;50.956;5.320;2024-03-07T04:02:41;113.07;;;46.17;;
29452;SDS011;16424;50.956;5.320;2024-03-07T04:05:08;106.63;;;44.47;;
29452;SDS011;16424;50.956;5.320;2024-03-07T04:07:36;127.80;;;47.45;;
29452;SDS011;16424;50.956;5.320;2024-03-07T04:10:02;119.38;;;45.75;;
29452;SDS011;16424;50.956;5.320;2024-03-07T04:12:29;120.90;;;45.58;;
29452;SDS011;16424;50.956;5.320;2024-03-07T04:14:54;119.63;;;47.38;;
29452;SDS011;16424;50.956;5.320;2024-03-07T04:17:20;117.93;;;43.47;;
29452;SDS011;16424;50.956;5.320;2024-03-07T04:19:46;109.75;;;44.38;;
29452;SDS011;16424;50.956;5.320;2024-03-07T04:22:13;124.30;;;46.55;;
29452;SDS011;16424;50.956;5.320;2024-03-07T04:24:40;123.43;;;46.33;;
29452;SDS011;16424;50.956;5.320;2024-03-07T04:27:06;106.00;;;44.80;;
29452;SDS011;16424;50.956;5.320;2024-03-07T04:29:32;121.00;;;44.88;;
29452;SDS011;16424;50.956;5.320;2024-03-07T04:32:02;102.68;;;42.70;;
29452;SDS011;16424;50.956;5.320;2024-03-07T04:34:29;117.90;;;45.70;;
29452;SDS011;16424;50.956;5.320;2024-03-07T04:36:58;103.68;;;42.35;;
29452;SDS011;16424;50.956;5.320;2024-03-07T04:39:29;106.05;;;41.80;;
29452;SDS011;16424;50.956;5.320;2024-03-07T04:42:00;115.78;;;43.25;;
29452;SDS011;16424;50.956;5.320;2024-03-07T04:44:27;101.60;;;41.03;;
29452;SDS011;16424;50.956;5.320;2024-03-07T04:46:53;109.47;;;44.40;;
29452;SDS011;16424;50.956;5.320;2024-03-07T04:49:23;122.60;;;45.75;;
29452;SDS011;16424;50.956;5.320;2024-03-07T04:51:50;131.32;;;49.33;;
29452;SDS011;16424;50.956;5.320;2024-03-07T04:54:19;126.93;;;47.30;;
29452;SDS011;16424;50.956;5.320;2024-03-07T04:56:46;124.43;;;48.50;;
29452;SDS011;16424;50.956;5.320;2024-03-07T04:59:12;133.93;;;47.75;;
29452;SDS011;16424;50.956;5.320;2024-03-07T05:01:39;118.65;;;47.15;;
29452;SDS011;16424;50.956;5.320;2024-03-07T05:04:05;128.10;;;49.15;;
29452;SDS011;16424;50.956;5.320;2024-03-07T05:06:31;132.15;;;46.97;;
29452;SDS011;16424;50.956;5.320;2024-03-07T05:09:02;136.90;;;48.88;;
29452;SDS011;16424;50.956;5.320;2024-03-07T05:11:29;136.20;;;49.60;;
29452;SDS011;16424;50.956;5.320;2024-03-07T05:13:56;125.93;;;47.47;;
29452;SDS011;16424;50.956;5.320;2024-03-07T05:16:23;137.55;;;50.25;;
29452;SDS011;16424;50.956;5.320;2024-03-07T05:18:49;144.13;;;49.83;;
29452;SDS011;16424;50.956;5.320;2024-03-07T05:21:16;132.23;;;50.35;;
29452;SDS011;16424;50.956;5.320;2024-03-07T05:24:00;131.80;;;48.17;;
29452;SDS011;16424;50.956;5.320;2024-03-07T05:26:27;132.32;;;48.53;;
29452;SDS011;16424;50.956;5.320;2024-03-07T05:28:53;131.05;;;48.67;;
29452;SDS011;16424;50.956;5.320;2024-03-07T05:31:22;128.02;;;50.08;;
29452;SDS011;16424;50.956;5.320;2024-03-07T05:33:47;138.38;;;50.08;;
29452;SDS011;16424;50.956;5.320;2024-03-07T05:36:13;129.68;;;47.75;;
29452;SDS011;16424;50.956;5.320;2024-03-07T05:38:42;140.35;;;51.35;;
29452;SDS011;16424;50.956;5.320;2024-03-07T05:41:11;133.43;;;52.65;;
29452;SDS011;16424;50.956;5.320;2024-03-07T05:43:39;147.25;;;54.42;;
29452;SDS011;16424;50.956;5.320;2024-03-07T05:46:05;140.13;;;53.55;;
29452;SDS011;16424;50.956;5.320;2024-03-07T05:48:36;140.13;;;52.70;;
29452;SDS011;16424;50.956;5.320;2024-03-07T05:51:02;148.45;;;54.63;;
29452;SDS011;16424;50.956;5.320;2024-03-07T05:53:27;156.93;;;52.25;;
29452;SDS011;16424;50.956;5.320;2024-03-07T05:55:53;202.75;;;55.15;;
29452;SDS011;16424;50.956;5.320;2024-03-07T05:58:19;177.60;;;56.30;;
29452;SDS011;16424;50.956;5.320;2024-03-07T06:00:48;145.15;;;51.55;;
29452;SDS011;16424;50.956;5.320;2024-03-07T06:03:19;146.18;;;52.42;;
29452;SDS011;16424;50.956;5.320;2024-03-07T06:05:47;147.23;;;49.78;;
29452;SDS011;16424;50.956;5.320;2024-03-07T06:08:16;204.02;;;55.33;;
29452;SDS011;16424;50.956;5.320;2024-03-07T06:10:47;150.10;;;53.80;;
29452;SDS011;16424;50.956;5.320;2024-03-07T06:13:13;136.23;;;51.97;;
29452;SDS011;16424;50.956;5.320;2024-03-07T06:15:43;148.00;;;51.38;;
29452;SDS011;16424;50.956;5.320;2024-03-07T06:18:09;136.70;;;51.35;;
29452;SDS011;16424;50.956;5.320;2024-03-07T06:20:36;155.10;;;55.38;;
29452;SDS011;16424;50.956;5.320;2024-03-07T06:23:02;132.55;;;52.60;;
29452;SDS011;16424;50.956;5.320;2024-03-07T06:25:30;136.50;;;53.97;;
29452;SDS011;16424;50.956;5.320;2024-03-07T06:28:12;141.43;;;52.05;;
29452;SDS011;16424;50.956;5.320;2024-03-07T06:30:38;162.70;;;52.67;;
29452;SDS011;16424;50.956;5.320;2024-03-07T06:33:06;165.45;;;55.17;;
29452;SDS011;16424;50.956;5.320;2024-03-07T06:35:32;130.48;;;48.58;;
29452;SDS011;16424;50.956;5.320;2024-03-07T06:38:02;153.18;;;56.17;;
29452;SDS011;16424;50.956;5.320;2024-03-07T06:40:31;144.90;;;54.60;;
29452;SDS011;16424;50.956;5.320;2024-03-07T06:42:58;146.50;;;53.45;;
29452;SDS011;16424;50.956;5.320;2024-03-07T06:45:24;149.30;;;54.65;;
29452;SDS011;16424;50.956;5.320;2024-03-07T06:47:51;134.88;;;53.08;;
29452;SDS011;16424;50.956;5.320;2024-03-07T06:50:19;150.95;;;52.50;;
29452;SDS011;16424;50.956;5.320;2024-03-07T06:52:48;143.27;;;51.38;;
29452;SDS011;16424;50.956;5.320;2024-03-07T06:55:17;167.18;;;55.50;;
29452;SDS011;16424;50.956;5.320;2024-03-07T06:57:44;128.25;;;47.42;;
29452;SDS011;16424;50.956;5.320;2024-03-07T07:00:10;128.10;;;49.67;;
29452;SDS011;16424;50.956;5.320;2024-03-07T07:02:40;128.45;;;51.17;;
29452;SDS011;16424;50.956;5.320;2024-03-07T07:05:06;120.50;;;47.42;;
29452;SDS011;16424;50.956;5.320;2024-03-07T07:07:38;125.15;;;47.20;;
29452;SDS011;16424;50.956;5.320;2024-03-07T07:10:07;115.05;;;47.05;;
29452;SDS011;16424;50.956;5.320;2024-03-07T07:12:38;126.25;;;47.00;;
29452;SDS011;16424;50.956;5.320;2024-03-07T07:15:04;97.55;;;44.38;;
29452;SDS011;16424;50.956;5.320;2024-03-07T07:17:30;106.88;;;46.47;;
29452;SDS011;16424;50.956;5.320;2024-03-07T07:19:57;97.85;;;44.95;;
29452;SDS011;16424;50.956;5.320;2024-03-07T07:22:24;84.60;;;42.80;;
29452;SDS011;16424;50.956;5.320;2024-03-07T07:24:50;91.43;;;43.08;;
29452;SDS011;16424;50.956;5.320;2024-03-07T07:27:16;89.82;;;39.83;;
29452;SDS011;16424;50.956;5.320;2024-03-07T07:29:43;80.45;;;37.33;;
29452;SDS011;16424;50.956;5.320;2024-03-07T07:32:09;71.22;;;37.88;;
29452;SDS011;16424;50.956;5.320;2024-03-07T07:34:37;77.88;;;38.53;;
29452;SDS011;16424;50.956;5.320;2024-03-07T07:37:04;75.18;;;36.17;;
29452;SDS011;16424;50.956;5.320;2024-03-07T07:39:29;69.20;;;35.85;;
29452;SDS011;16424;50.956;5.320;2024-03-07T07:41:56;67.07;;;33.90;;
29452;SDS011;16424;50.956;5.320;2024-03-07T07:44:22;68.65;;;34.67;;
29452;SDS011;16424;50.956;5.320;2024-03-07T07:46:48;62.85;;;35.13;;
29452;SDS011;16424;50.956;5.320;2024-03-07T07:49:14;60.17;;;33.38;;
29452;SDS011;16424;50.956;5.320;2024-03-07T07:51:41;60.47;;;31.38;;
29452;SDS011;16424;50.956;5.320;2024-03-07T07:54:07;56.20;;;32.97;;
29452;SDS011;16424;50.956;5.320;2024-03-07T07:56:34;54.90;;;30.08;;
29452;SDS011;16424;50.956;5.320;2024-03-07T07:59:00;60.83;;;34.25;;
29452;SDS011;16424;50.956;5.320;2024-03-07T08:01:28;59.13;;;33.42;;
29452;SDS011;16424;50.956;5.320;2024-03-07T08:03:54;60.00;;;32.47;;
29452;SDS011;16424;50.956;5.320;2024-03-07T08:06:19;51.45;;;29.27;;
29452;SDS011;16424;50.956;5.320;2024-03-07T08:08:45;51.35;;;28.38;;
29452;SDS011;16424;50.956;5.320;2024-03-07T08:11:11;52.38;;;27.23;;
29452;SDS011;16424;50.956;5.320;2024-03-07T08:13:39;45.92;;;27.45;;
29452;SDS011;16424;50.956;5.320;2024-03-07T08:16:05;54.42;;;29.00;;
29452;SDS011;16424;50.956;5.320;2024-03-07T08:18:31;51.28;;;26.23;;
29452;SDS011;16424;50.956;5.320;2024-03-07T08:20:57;47.58;;;25.90;;
29452;SDS011;16424;50.956;5.320;2024-03-07T08:23:23;50.35;;;27.48;;
29452;SDS011;16424;50.956;5.320;2024-03-07T08:25:54;51.15;;;26.75;;
29452;SDS011;16424;50.956;5.320;2024-03-07T08:28:20;48.97;;;27.90;;
29452;SDS011;16424;50.956;5.320;2024-03-07T08:30:45;47.35;;;26.70;;
29452;SDS011;16424;50.956;5.320;2024-03-07T08:33:11;49.10;;;25.63;;
29452;SDS011;16424;50.956;5.320;2024-03-07T08:35:39;43.38;;;24.38;;
29452;SDS011;16424;50.956;5.320;2024-03-07T08:38:04;43.90;;;24.60;;
29452;SDS011;16424;50.956;5.320;2024-03-07T08:40:30;53.47;;;26.63;;
29452;SDS011;16424;50.956;5.320;2024-03-07T08:42:57;47.15;;;25.90;;
29452;SDS011;16424;50.956;5.320;2024-03-07T08:45:24;38.97;;;23.60;;
29452;SDS011;16424;50.956;5.320;2024-03-07T08:47:51;39.58;;;24.17;;
29452;SDS011;16424;50.956;5.320;2024-03-07T08:50:21;45.83;;;26.42;;
29452;SDS011;16424;50.956;5.320;2024-03-07T08:52:48;45.15;;;24.75;;
29452;SDS011;16424;50.956;5.320;2024-03-07T08:55:15;42.65;;;21.98;;
29452;SDS011;16424;50.956;5.320;2024-03-07T08:57:42;42.97;;;23.95;;
29452;SDS011;16424;50.956;5.320;2024-03-07T09:00:11;37.10;;;23.25;;
29452;SDS011;16424;50.956;5.320;2024-03-07T09:02:47;46.08;;;24.27;;
29452;SDS011;16424;50.956;5.320;2024-03-07T09:05:19;45.45;;;25.27;;
29452;SDS011;16424;50.956;5.320;2024-03-07T09:07:48;50.47;;;25.52;;
29452;SDS011;16424;50.956;5.320;2024-03-07T09:10:14;39.42;;;23.23;;
29452;SDS011;16424;50.956;5.320;2024-03-07T09:12:41;40.08;;;24.33;;
29452;SDS011;16424;50.956;5.320;2024-03-07T09:15:06;40.72;;;23.58;;
29452;SDS011;16424;50.956;5.320;2024-03-07T09:17:37;42.28;;;23.67;;
29452;SDS011;16424;50.956;5.320;2024-03-07T09:20:06;35.35;;;22.77;;
29452;SDS011;16424;50.956;5.320;2024-03-07T09:22:40;39.40;;;24.02;;
29452;SDS011;16424;50.956;5.320;2024-03-07T09:25:06;41.25;;;22.38;;
29452;SDS011;16424;50.956;5.320;2024-03-07T09:27:33;40.45;;;22.83;;
29452;SDS011;16424;50.956;5.320;2024-03-07T09:29:58;39.50;;;20.98;;
29452;SDS011;16424;50.956;5.320;2024-03-07T09:32:24;39.92;;;22.55;;
29452;SDS011;16424;50.956;5.320;2024-03-07T09:34:50;37.65;;;23.02;;
29452;SDS011;16424;50.956;5.320;2024-03-07T09:37:15;41.58;;;24.00;;
29452;SDS011;16424;50.956;5.320;2024-03-07T09:39:42;39.05;;;22.77;;
29452;SDS011;16424;50.956;5.320;2024-03-07T09:42:08;39.63;;;22.45;;
29452;SDS011;16424;50.956;5.320;2024-03-07T09:44:40;41.38;;;21.98;;
29452;SDS011;16424;50.956;5.320;2024-03-07T09:47:08;42.47;;;23.23;;
29452;SDS011;16424;50.956;5.320;2024-03-07T09:49:36;36.45;;;21.77;;
29452;SDS011;16424;50.956;5.320;2024-03-07T09:52:04;39.03;;;22.30;;
29452;SDS011;16424;50.956;5.320;2024-03-07T09:54:33;39.53;;;21.70;;
29452;SDS011;16424;50.956;5.320;2024-03-07T09:56:59;36.47;;;20.05;;
29452;SDS011;16424;50.956;5.320;2024-03-07T09:59:28;43.33;;;22.23;;
29452;SDS011;16424;50.956;5.320;2024-03-07T10:01:56;39.20;;;23.67;;
29452;SDS011;16424;50.956;5.320;2024-03-07T10:04:47;39.75;;;22.25;;
29452;SDS011;16424;50.956;5.320;2024-03-07T10:07:16;41.40;;;24.40;;
29452;SDS011;16424;50.956;5.320;2024-03-07T10:09:42;36.45;;;22.38;;
29452;SDS011;16424;50.956;5.320;2024-03-07T10:12:09;37.22;;;21.52;;
29452;SDS011;16424;50.956;5.320;2024-03-07T10:14:37;38.83;;;22.55;;
29452;SDS011;16424;50.956;5.320;2024-03-07T10:17:04;41.38;;;22.48;;
29452;SDS011;16424;50.956;5.320;2024-03-07T10:19:30;40.13;;;23.50;;
29452;SDS011;16424;50.956;5.320;2024-03-07T10:21:56;39.20;;;22.42;;
29452;SDS011;16424;50.956;5.320;2024-03-07T10:24:26;39.13;;;22.83;;
29452;SDS011;16424;50.956;5.320;2024-03-07T10:26:53;37.20;;;24.13;;
29452;SDS011;16424;50.956;5.320;2024-03-07T10:29:22;35.88;;;22.52;;
29452;SDS011;16424;50.956;5.320;2024-03-07T10:31:48;41.08;;;23.52;;
29452;SDS011;16424;50.956;5.320;2024-03-07T10:34:14;37.72;;;23.23;;
29452;SDS011;16424;50.956;5.320;2024-03-07T10:36:43;39.25;;;24.17;;
29452;SDS011;16424;50.956;5.320;2024-03-07T10:39:10;37.30;;;22.27;;
29452;SDS011;16424;50.956;5.320;2024-03-07T10:41:48;36.97;;;23.33;;
29452;SDS011;16424;50.956;5.320;2024-03-07T10:44:24;41.58;;;24.60;;
29452;SDS011;16424;50.956;5.320;2024-03-07T10:46:57;38.30;;;23.10;;
29452;SDS011;16424;50.956;5.320;2024-03-07T10:49:28;37.67;;;24.17;;
29452;SDS011;16424;50.956;5.320;2024-03-07T10:52:02;41.85;;;24.20;;
29452;SDS011;16424;50.956;5.320;2024-03-07T10:57:33;46.22;;;26.48;;
29452;SDS011;16424;50.956;5.320;2024-03-07T11:00:24;41.83;;;26.30;;
29452;SDS011;16424;50.956;5.320;2024-03-07T11:03:01;42.83;;;25.05;;
29452;SDS011;16424;50.956;5.320;2024-03-07T11:05:32;43.13;;;25.35;;
29452;SDS011;16424;50.956;5.320;2024-03-07T11:07:59;43.60;;;25.98;;
29452;SDS011;16424;50.956;5.320;2024-03-07T11:10:30;36.88;;;23.48;;
29452;SDS011;16424;50.956;5.320;2024-03-07T11:12:56;38.05;;;25.15;;
29452;SDS011;16424;50.956;5.320;2024-03-07T11:15:23;39.25;;;23.45;;
29452;SDS011;16424;50.956;5.320;2024-03-07T11:17:52;40.47;;;23.23;;
29452;SDS011;16424;50.956;5.320;2024-03-07T11:20:23;39.38;;;23.77;;
29452;SDS011;16424;50.956;5.320;2024-03-07T11:22:50;41.78;;;23.85;;
29452;SDS011;16424;50.956;5.320;2024-03-07T11:25:18;35.72;;;23.52;;
29452;SDS011;16424;50.956;5.320;2024-03-07T11:27:58;39.25;;;23.42;;
29452;SDS011;16424;50.956;5.320;2024-03-07T11:30:26;37.55;;;22.92;;
29452;SDS011;16424;50.956;5.320;2024-03-07T11:32:52;31.10;;;21.75;;
29452;SDS011;16424;50.956;5.320;2024-03-07T11:35:19;37.30;;;23.15;;
29452;SDS011;16424;50.956;5.320;2024-03-07T11:37:57;36.13;;;22.23;;
29452;SDS011;16424;50.956;5.320;2024-03-07T11:42:50;32.17;;;20.52;;
29452;SDS011;16424;50.956;5.320;2024-03-07T11:45:19;33.30;;;21.67;;
29452;SDS011;16424;50.956;5.320;2024-03-07T11:47:52;34.28;;;20.98;;
29452;SDS011;16424;50.956;5.320;2024-03-07T11:50:31;25.98;;;19.23;;
29452;SDS011;16424;50.956;5.320;2024-03-07T11:53:00;32.60;;;20.88;;
29452;SDS011;16424;50.956;5.320;2024-03-07T11:55:27;28.77;;;20.30;;
29452;SDS011;16424;50.956;5.320;2024-03-07T11:58:06;26.27;;;19.13;;
29452;SDS011;16424;50.956;5.320;2024-03-07T12:00:37;28.83;;;20.73;;
29452;SDS011;16424;50.956;5.320;2024-03-07T12:03:07;34.25;;;20.02;;
29452;SDS011;16424;50.956;5.320;2024-03-07T12:05:38;27.33;;;19.35;;
29452;SDS011;16424;50.956;5.320;2024-03-07T12:08:06;28.17;;;18.90;;
29452;SDS011;16424;50.956;5.320;2024-03-07T12:10:34;25.90;;;19.85;;
29452;SDS011;16424;50.956;5.320;2024-03-07T12:13:01;27.25;;;20.00;;
29452;SDS011;16424;50.956;5.320;2024-03-07T12:15:28;29.10;;;19.55;;
29452;SDS011;16424;50.956;5.320;2024-03-07T12:17:55;26.55;;;19.13;;
29452;SDS011;16424;50.956;5.320;2024-03-07T12:20:22;28.92;;;19.17;;
29452;SDS011;16424;50.956;5.320;2024-03-07T12:22:55;28.30;;;20.73;;
29452;SDS011;16424;50.956;5.320;2024-03-07T12:25:22;27.52;;;20.90;;
29452;SDS011;16424;50.956;5.320;2024-03-07T12:30:51;29.10;;;20.67;;
29452;SDS011;16424;50.956;5.320;2024-03-07T12:33:19;27.77;;;18.75;;
29452;SDS011;16424;50.956;5.320;2024-03-07T12:35:50;25.10;;;19.38;;
29452;SDS011;16424;50.956;5.320;2024-03-07T12:38:21;30.70;;;19.50;;
29452;SDS011;16424;50.956;5.320;2024-03-07T12:41:01;25.50;;;18.35;;
29452;SDS011;16424;50.956;5.320;2024-03-07T12:43:41;23.27;;;18.70;;
29452;SDS011;16424;50.956;5.320;2024-03-07T12:46:07;30.45;;;27.38;;
29452;SDS011;16424;50.956;5.320;2024-03-07T12:48:36;28.45;;;22.55;;
29452;SDS011;16424;50.956;5.320;2024-03-07T12:51:03;33.60;;;25.10;;
29452;SDS011;16424;50.956;5.320;2024-03-07T12:53:30;33.72;;;27.85;;
29452;SDS011;16424;50.956;5.320;2024-03-07T12:55:56;36.45;;;32.67;;
29452;SDS011;16424;50.956;5.320;2024-03-07T12:58:22;31.15;;;27.98;;
29452;SDS011;16424;50.956;5.320;2024-03-07T13:00:54;38.40;;;34.67;;
29452;SDS011;16424;50.956;5.320;2024-03-07T13:03:20;33.92;;;30.52;;
29452;SDS011;16424;50.956;5.320;2024-03-07T13:05:47;36.75;;;32.67;;
29452;SDS011;16424;50.956;5.320;2024-03-07T13:08:12;36.72;;;33.05;;
29452;SDS011;16424;50.956;5.320;2024-03-07T13:10:41;38.58;;;34.83;;
29452;SDS011;16424;50.956;5.320;2024-03-07T13:13:07;37.95;;;34.42;;
29452;SDS011;16424;50.956;5.320;2024-03-07T13:15:36;36.65;;;32.35;;
29452;SDS011;16424;50.956;5.320;2024-03-07T13:18:07;39.83;;;35.72;;
29452;SDS011;16424;50.956;5.320;2024-03-07T13:20:34;41.35;;;37.30;;
29452;SDS011;16424;50.956;5.320;2024-03-07T13:23:01;37.10;;;33.50;;
29452;SDS011;16424;50.956;5.320;2024-03-07T13:25:28;40.40;;;36.15;;
29452;SDS011;16424;50.956;5.320;2024-03-07T13:30:39;39.25;;;35.47;;
29452;SDS011;16424;50.956;5.320;2024-03-07T13:33:08;39.45;;;35.45;;
29452;SDS011;16424;50.956;5.320;2024-03-07T13:35:38;40.42;;;36.35;;
29452;SDS011;16424;50.956;5.320;2024-03-07T13:38:05;38.88;;;35.17;;
29452;SDS011;16424;50.956;5.320;2024-03-07T13:40:31;43.53;;;39.65;;
29452;SDS011;16424;50.956;5.320;2024-03-07T13:43:00;39.92;;;36.03;;
29452;SDS011;16424;50.956;5.320;2024-03-07T13:45:33;40.65;;;36.65;;
29452;SDS011;16424;50.956;5.320;2024-03-07T13:48:09;39.08;;;34.92;;
29452;SDS011;16424;50.956;5.320;2024-03-07T13:50:38;40.70;;;36.83;;
29452;SDS011;16424;50.956;5.320;2024-03-07T13:53:09;39.10;;;35.50;;
29452;SDS011;16424;50.956;5.320;2024-03-07T14:09:30;38.50;;;34.45;;
29452;SDS011;16424;50.956;5.320;2024-03-07T14:23:39;38.50;;;34.97;;
29452;SDS011;16424;50.956;5.320;2024-03-07T14:26:34;43.33;;;39.55;;
29452;SDS011;16424;50.956;5.320;2024-03-07T14:29:52;48.60;;;44.22;;
29452;SDS011;16424;50.956;5.320;2024-03-07T14:32:13;33.72;;;30.13;;
29452;SDS011;16424;50.956;5.320;2024-03-07T14:37:55;33.95;;;30.55;;
29452;SDS011;16424;50.956;5.320;2024-03-07T14:40:41;35.28;;;32.08;;
29452;SDS011;16424;50.956;5.320;2024-03-07T14:43:09;49.33;;;45.22;;
29452;SDS011;16424;50.956;5.320;2024-03-07T14:45:39;43.58;;;39.78;;
29452;SDS011;16424;50.956;5.320;2024-03-07T14:48:06;73.35;;;67.97;;
29452;SDS011;16424;50.956;5.320;2024-03-07T14:50:37;37.70;;;34.53;;
29452;SDS011;16424;50.956;5.320;2024-03-07T14:53:06;37.80;;;34.45;;
29452;SDS011;16424;50.956;5.320;2024-03-07T14:55:32;41.45;;;37.97;;
29452;SDS011;16424;50.956;5.320;2024-03-07T14:57:59;33.70;;;30.67;;
29452;SDS011;16424;50.956;5.320;2024-03-07T15:00:25;67.30;;;62.33;;
29452;SDS011;16424;50.956;5.320;2024-03-07T15:02:52;32.08;;;29.23;;